createdAt,value
2018-12-19T00:01:45.894Z,0.36
2018-12-19T00:04:11.783Z,0.45
2018-12-19T00:06:37.634Z,0.44
2018-12-19T00:09:05.446Z,0.40
2018-12-19T00:11:31.315Z,0.47
2018-12-19T00:13:57.179Z,0.51
2018-12-19T00:16:23.033Z,0.56
2018-12-19T00:18:48.890Z,0.46
2018-12-19T00:21:14.714Z,0.46
2018-12-19T00:23:40.530Z,0.62
2018-12-19T00:26:06.387Z,0.60
2018-12-19T00:28:32.341Z,0.48
2018-12-19T00:30:58.163Z,0.49
2018-12-19T00:33:24.054Z,0.42
2018-12-19T00:35:50.127Z,0.41
2018-12-19T00:40:48.561Z,0.54
2018-12-19T00:43:14.398Z,0.44
2018-12-19T00:45:40.262Z,0.43
2018-12-19T00:48:06.701Z,0.35
2018-12-19T00:50:32.569Z,0.50
2018-12-19T00:52:58.450Z,0.46
2018-12-19T00:55:24.374Z,0.29
2018-12-19T00:57:50.342Z,0.38
2018-12-19T01:00:16.372Z,0.31
2018-12-19T01:02:42.258Z,0.32
2018-12-19T01:05:08.098Z,0.29
2018-12-19T01:07:33.958Z,0.33
2018-12-19T01:09:59.833Z,0.28
2018-12-19T01:12:25.666Z,0.30
2018-12-19T01:14:51.529Z,0.26
2018-12-19T01:17:17.417Z,0.10
2018-12-19T01:19:43.291Z,0.07
2018-12-19T01:22:09.140Z,0.12
2018-12-19T01:24:34.989Z,0.29
2018-12-19T01:27:00.862Z,0.21
2018-12-19T01:29:26.740Z,0.20
2018-12-19T01:31:52.574Z,0.41
2018-12-19T01:34:18.412Z,0.42
2018-12-19T01:36:44.309Z,0.48
2018-12-19T01:39:10.173Z,0.40
2018-12-19T01:41:36.053Z,0.31
2018-12-19T01:44:01.895Z,0.07
2018-12-19T01:46:27.769Z,-0.02
2018-12-19T01:48:53.605Z,-0.02
2018-12-19T01:51:19.802Z,0.11
2018-12-19T01:53:45.858Z,0.03
2018-12-19T01:56:11.749Z,0.04
2018-12-19T01:58:37.598Z,-0.01
2018-12-19T02:01:03.441Z,-0.07
2018-12-19T02:03:29.349Z,-0.05
2018-12-19T02:05:55.203Z,-0.11
2018-12-19T02:08:21.044Z,0.03
2018-12-19T02:10:46.966Z,0.04
2018-12-19T02:13:12.817Z,-0.17
2018-12-19T02:15:38.662Z,-0.01
2018-12-19T02:18:04.629Z,-0.10
2018-12-19T02:20:30.471Z,0.04
2018-12-19T02:22:56.342Z,0.04
2018-12-19T02:25:22.234Z,-0.09
2018-12-19T02:27:48.102Z,-0.26
2018-12-19T02:30:14.033Z,-0.18
2018-12-19T02:32:39.907Z,-0.34
2018-12-19T02:35:05.750Z,-0.30
2018-12-19T02:37:31.699Z,-0.38
2018-12-19T02:39:57.547Z,-0.27
2018-12-19T02:42:23.397Z,-0.28
2018-12-19T02:44:49.362Z,-0.37
2018-12-19T02:47:15.233Z,-0.36
2018-12-19T02:49:41.098Z,-0.34
2018-12-19T02:52:06.950Z,-0.32
2018-12-19T02:54:32.816Z,-0.34
2018-12-19T02:56:58.685Z,-0.26
2018-12-19T02:59:24.547Z,-0.47
2018-12-19T03:01:50.409Z,-0.31
2018-12-19T03:04:16.270Z,-0.30
2018-12-19T03:06:42.120Z,-0.32
2018-12-19T03:09:07.981Z,-0.42
2018-12-19T03:11:33.855Z,-0.49
2018-12-19T03:13:59.809Z,-0.37
2018-12-19T03:16:25.776Z,-0.47
2018-12-19T03:18:51.698Z,-0.44
2018-12-19T03:21:17.520Z,-0.46
2018-12-19T03:23:43.359Z,-0.50
2018-12-19T03:26:09.207Z,-0.55
2018-12-19T03:28:35.116Z,-0.55
2018-12-19T03:31:00.948Z,-0.42
2018-12-19T03:33:26.899Z,-0.35
2018-12-19T03:35:52.788Z,-0.33
2018-12-19T03:38:23.659Z,-0.39
2018-12-19T03:40:49.553Z,-0.43
2018-12-19T03:43:15.400Z,-0.21
2018-12-19T03:45:41.254Z,-0.20
2018-12-19T03:48:09.127Z,-0.25
2018-12-19T03:50:34.993Z,-0.30
2018-12-19T03:53:00.839Z,-0.36
2018-12-19T03:55:26.701Z,-0.43
2018-12-19T03:57:52.694Z,-0.50
2018-12-19T04:00:18.538Z,-0.67
2018-12-19T04:02:44.451Z,-0.68
2018-12-19T04:05:10.330Z,-0.83
2018-12-19T04:07:36.184Z,-0.74
2018-12-19T04:10:03.807Z,-0.72
2018-12-19T04:12:29.779Z,-0.64
2018-12-19T04:14:55.653Z,-0.57
2018-12-19T04:17:21.499Z,-0.64
2018-12-19T04:19:54.483Z,-0.67
2018-12-19T04:22:20.367Z,-0.84
2018-12-19T04:27:39.097Z,-0.83
2018-12-19T04:30:05.005Z,-0.85
2018-12-19T04:32:31.266Z,-0.82
2018-12-19T04:34:57.113Z,-0.81
2018-12-19T04:37:22.955Z,-0.76
2018-12-19T04:39:48.964Z,-0.81
2018-12-19T04:42:14.817Z,-0.88
2018-12-19T04:44:47.615Z,-0.94
2018-12-19T04:47:13.461Z,-0.98
2018-12-19T04:49:39.326Z,-0.87
2018-12-19T04:52:05.156Z,-0.90
2018-12-19T04:54:31.156Z,-0.82
2018-12-19T04:56:57.017Z,-0.81
2018-12-19T04:59:22.903Z,-0.81
2018-12-19T05:01:48.757Z,-0.83
2018-12-19T05:04:14.652Z,-0.84
2018-12-19T05:06:40.548Z,-0.72
2018-12-19T05:09:06.737Z,-0.83
2018-12-19T05:11:33.198Z,-0.69
2018-12-19T05:13:59.042Z,-0.75
2018-12-19T05:16:24.946Z,-0.80
2018-12-19T05:18:50.821Z,-1.00
2018-12-19T05:21:23.624Z,-3.75
2018-12-19T05:23:49.587Z,-1.06
2018-12-19T05:26:15.503Z,-0.97
2018-12-19T05:28:41.394Z,-1.02
2018-12-19T05:31:07.266Z,-0.96
2018-12-19T05:33:33.106Z,-0.92
2018-12-19T05:35:58.975Z,-0.82
2018-12-19T05:38:24.810Z,-0.78
2018-12-19T05:40:50.695Z,-0.80
2018-12-19T05:43:16.733Z,-0.91
2018-12-19T05:45:42.598Z,-0.72
2018-12-19T05:48:08.458Z,-0.91
2018-12-19T05:50:34.586Z,-0.92
2018-12-19T05:53:00.443Z,-0.89
2018-12-19T05:55:26.290Z,-0.94
2018-12-19T05:57:52.178Z,-0.82
2018-12-19T06:00:18.054Z,-0.78
2018-12-19T06:02:43.914Z,-0.86
2018-12-19T06:05:09.782Z,-0.69
2018-12-19T06:07:35.618Z,-0.89
2018-12-19T06:10:01.620Z,-1.00
2018-12-19T06:12:27.481Z,-0.90
2018-12-19T06:14:53.359Z,-0.99
2018-12-19T06:17:19.369Z,-0.86
2018-12-19T06:19:45.324Z,-0.93
2018-12-19T06:22:11.190Z,-1.06
2018-12-19T06:24:37.095Z,-1.10
2018-12-19T06:27:02.971Z,-1.22
2018-12-19T06:29:28.906Z,-1.21
2018-12-19T06:31:54.814Z,-1.04
2018-12-19T06:34:20.687Z,-1.12
2018-12-19T06:36:46.584Z,-1.20
2018-12-19T06:39:12.450Z,-1.16
2018-12-19T06:41:38.494Z,-1.21
2018-12-19T06:44:04.322Z,-1.21
2018-12-19T06:46:30.198Z,-1.16
2018-12-19T06:48:56.041Z,-1.11
2018-12-19T06:51:21.917Z,-1.23
2018-12-19T06:53:47.769Z,-1.26
2018-12-19T06:56:13.709Z,-1.27
2018-12-19T06:58:39.574Z,-1.13
2018-12-19T07:01:05.429Z,-1.00
2018-12-19T07:03:31.306Z,-0.89
2018-12-19T07:05:57.164Z,-0.96
2018-12-19T07:08:23.014Z,-0.96
2018-12-19T07:10:48.902Z,-0.97
2018-12-19T07:13:14.777Z,-1.10
2018-12-19T07:15:40.628Z,-1.03
2018-12-19T07:18:06.466Z,-1.10
2018-12-19T07:20:32.334Z,-0.92
2018-12-19T07:22:58.200Z,-0.79
2018-12-19T07:25:24.126Z,-0.70
2018-12-19T07:27:49.974Z,-0.63
2018-12-19T07:30:15.897Z,-0.63
2018-12-19T07:32:41.773Z,-0.63
2018-12-19T07:35:07.702Z,-0.73
2018-12-19T07:37:33.562Z,-0.83
2018-12-19T07:39:59.446Z,-0.62
2018-12-19T07:42:25.283Z,-0.63
2018-12-19T07:44:51.178Z,-0.88
2018-12-19T07:47:17.010Z,-0.76
2018-12-19T07:49:42.884Z,-0.82
2018-12-19T07:52:08.739Z,-0.77
2018-12-19T07:54:41.473Z,-0.78
2018-12-19T07:57:07.345Z,-0.83
2018-12-19T07:59:33.205Z,-0.74
2018-12-19T08:01:59.097Z,-0.82
2018-12-19T08:04:25.283Z,-0.78
2018-12-19T08:06:52.432Z,-0.78
2018-12-19T08:09:18.442Z,-0.76
2018-12-19T08:11:44.302Z,-0.87
2018-12-19T08:14:10.135Z,-0.90
2018-12-19T08:16:36.159Z,-0.74
2018-12-19T08:19:02.126Z,-0.73
2018-12-19T08:21:27.986Z,-0.77
2018-12-19T08:23:53.853Z,-0.70
2018-12-19T08:26:19.692Z,-0.66
2018-12-19T08:28:45.874Z,-0.68
2018-12-19T08:31:11.717Z,-0.63
2018-12-19T08:33:37.566Z,-0.58
2018-12-19T08:36:03.486Z,-0.52
2018-12-19T08:38:29.363Z,-0.56
2018-12-19T08:40:58.779Z,-0.46
2018-12-19T08:43:23.073Z,-0.40
2018-12-19T08:45:49.354Z,-0.57
2018-12-19T08:48:15.218Z,-0.53
2018-12-19T08:50:41.087Z,-0.72
2018-12-19T08:53:06.943Z,-0.69
2018-12-19T08:55:32.798Z,-0.45
2018-12-19T08:57:58.651Z,-0.42
2018-12-19T09:00:24.539Z,-0.40
2018-12-19T09:02:50.445Z,-0.49
2018-12-19T09:05:16.344Z,-0.38
2018-12-19T09:07:42.230Z,-0.38
2018-12-19T09:10:08.229Z,-0.31
2018-12-19T09:12:34.201Z,-0.31
2018-12-19T09:15:00.580Z,-0.26
2018-12-19T09:17:27.056Z,-0.04
2018-12-19T09:19:53.323Z,-0.07
2018-12-19T09:22:19.336Z,-0.13
2018-12-19T09:24:45.889Z,-0.05
2018-12-19T09:27:11.762Z,-0.03
2018-12-19T09:29:37.628Z,0.07
2018-12-19T09:32:03.470Z,0.09
2018-12-19T09:34:29.335Z,0.08
2018-12-19T09:36:55.277Z,0.17
2018-12-19T09:39:21.149Z,0.27
2018-12-19T09:41:47.015Z,0.35
2018-12-19T09:44:12.890Z,0.31
2018-12-19T09:46:38.797Z,0.43
2018-12-19T09:49:04.654Z,0.61
2018-12-19T09:51:30.614Z,0.57
2018-12-19T09:53:56.438Z,0.43
2018-12-19T09:56:22.319Z,0.57
2018-12-19T09:58:48.150Z,0.44
2018-12-19T10:01:14.046Z,0.28
2018-12-19T10:03:39.910Z,0.53
2018-12-19T10:06:05.776Z,0.64
2018-12-19T10:08:31.643Z,0.68
2018-12-19T10:10:57.533Z,0.51
2018-12-19T10:13:23.386Z,0.48
2018-12-19T10:18:21.182Z,0.52
2018-12-19T10:20:47.834Z,0.40
2018-12-19T10:23:13.721Z,0.51
2018-12-19T10:25:39.724Z,0.55
2018-12-19T10:28:05.698Z,0.70
2018-12-19T10:30:33.563Z,0.68
2018-12-19T10:32:59.430Z,0.53
2018-12-19T10:35:25.292Z,0.46
2018-12-19T10:37:51.161Z,0.48
2018-12-19T10:40:17.156Z,0.46
2018-12-19T10:42:43.018Z,0.65
2018-12-19T10:45:09.120Z,0.67
2018-12-19T10:47:35.950Z,0.69
2018-12-19T10:50:02.978Z,0.76
2018-12-19T10:52:28.950Z,0.76
2018-12-19T10:54:54.858Z,0.86
2018-12-19T10:57:20.699Z,0.77
2018-12-19T10:59:46.594Z,0.77
2018-12-19T11:02:13.591Z,0.82
2018-12-19T11:04:39.484Z,0.81
2018-12-19T11:07:05.357Z,0.90
2018-12-19T11:09:31.234Z,0.97
2018-12-19T11:11:58.729Z,0.98
2018-12-19T11:14:26.535Z,0.95
2018-12-19T11:16:52.380Z,0.94
2018-12-19T11:19:18.226Z,0.83
2018-12-19T11:21:44.082Z,0.89
2018-12-19T11:24:10.086Z,1.07
2018-12-19T11:26:36.143Z,0.95
2018-12-19T11:29:02.862Z,0.91
2018-12-19T11:31:28.983Z,0.95
2018-12-19T11:33:54.818Z,1.06
2018-12-19T11:36:20.680Z,0.93
2018-12-19T11:38:46.511Z,0.99
2018-12-19T11:41:12.375Z,1.06
2018-12-19T11:43:38.208Z,1.04
2018-12-19T11:46:04.054Z,1.20
2018-12-19T11:48:29.990Z,1.14
2018-12-19T11:50:55.826Z,1.13
2018-12-19T11:53:21.721Z,1.21
2018-12-19T11:55:47.710Z,1.25
2018-12-19T11:58:13.568Z,1.18
2018-12-19T12:00:39.450Z,1.18
2018-12-19T12:03:05.275Z,1.16
2018-12-19T12:05:31.134Z,1.25
2018-12-19T12:07:56.987Z,1.23
2018-12-19T12:10:22.810Z,1.09
2018-12-19T12:12:48.679Z,1.10
2018-12-19T12:15:14.550Z,0.99
2018-12-19T12:17:40.457Z,0.98
2018-12-19T12:20:06.535Z,1.01
2018-12-19T12:22:32.512Z,1.09
2018-12-19T12:24:58.364Z,0.97
2018-12-19T12:27:24.248Z,0.95
2018-12-19T12:29:50.278Z,1.04
2018-12-19T12:32:16.180Z,1.24
2018-12-19T12:34:42.019Z,1.22
2018-12-19T12:37:07.925Z,1.22
2018-12-19T12:39:33.814Z,1.23
2018-12-19T12:41:59.691Z,1.14
2018-12-19T12:44:25.682Z,1.28
2018-12-19T12:46:51.510Z,1.35
2018-12-19T12:49:17.398Z,1.31
2018-12-19T12:51:43.226Z,1.23
2018-12-19T12:54:09.108Z,1.31
2018-12-19T12:56:34.967Z,1.19
2018-12-19T12:59:00.798Z,1.17
2018-12-19T13:01:26.639Z,1.04
2018-12-19T13:03:52.531Z,0.99
2018-12-19T13:06:18.354Z,0.95
2018-12-19T13:08:44.235Z,0.80
2018-12-19T13:11:10.187Z,0.83
2018-12-19T13:13:36.086Z,0.86
2018-12-19T13:16:02.047Z,0.89
2018-12-19T13:18:27.871Z,0.86
2018-12-19T13:20:53.907Z,0.87
2018-12-19T13:23:19.750Z,0.88
2018-12-19T13:25:45.678Z,0.85
2018-12-19T13:28:11.786Z,0.95
2018-12-19T13:30:37.661Z,0.91
2018-12-19T13:33:03.510Z,0.86
2018-12-19T13:35:29.393Z,0.76
2018-12-19T13:37:55.385Z,0.71
2018-12-19T13:40:21.277Z,0.72
2018-12-19T13:42:47.135Z,0.86
2018-12-19T13:45:12.982Z,0.74
2018-12-19T13:47:38.877Z,0.80
2018-12-19T13:50:05.739Z,0.88
2018-12-19T13:52:31.582Z,0.73
2018-12-19T13:54:57.458Z,0.77
2018-12-19T13:57:23.325Z,0.74
2018-12-19T13:59:49.198Z,0.75
2018-12-19T14:02:15.069Z,0.78
2018-12-19T14:04:41.270Z,0.79
2018-12-19T14:07:08.359Z,0.81
2018-12-19T14:09:34.464Z,0.75
2018-12-19T14:12:00.334Z,0.71
2018-12-19T14:14:26.171Z,0.77
2018-12-19T14:16:52.098Z,0.68
2018-12-19T14:19:17.935Z,0.72
2018-12-19T14:21:43.869Z,0.72
2018-12-19T14:24:09.753Z,0.81
2018-12-19T14:26:35.649Z,0.89
2018-12-19T14:29:01.604Z,0.93
2018-12-19T14:31:27.438Z,0.88
2018-12-19T14:33:53.266Z,0.96
2018-12-19T14:36:19.226Z,0.99
2018-12-19T14:38:45.087Z,0.93
2018-12-19T14:41:10.958Z,0.92
2018-12-19T14:43:36.827Z,1.02
2018-12-19T14:46:02.679Z,1.00
2018-12-19T14:48:28.530Z,0.91
2018-12-19T14:50:54.557Z,1.00
2018-12-19T14:53:20.426Z,0.97
2018-12-19T14:55:46.298Z,0.93
2018-12-19T14:58:12.149Z,0.92
2018-12-19T15:00:38.006Z,1.01
2018-12-19T15:03:03.901Z,0.95
2018-12-19T15:05:29.773Z,0.83
2018-12-19T15:07:55.686Z,0.79
2018-12-19T15:10:21.703Z,0.88
2018-12-19T15:12:47.581Z,0.86
2018-12-19T15:15:13.452Z,0.80
2018-12-19T15:17:39.475Z,0.83
2018-12-19T15:20:05.522Z,0.89
2018-12-19T15:22:31.497Z,0.85
2018-12-19T15:24:57.342Z,0.84
2018-12-19T15:27:23.205Z,0.91
2018-12-19T15:29:49.085Z,0.83
2018-12-19T15:32:14.930Z,0.85
2018-12-19T15:34:40.799Z,0.83
2018-12-19T15:37:06.674Z,0.89
2018-12-19T15:39:32.543Z,0.82
2018-12-19T15:41:58.390Z,0.86
2018-12-19T15:44:24.273Z,0.89
2018-12-19T15:46:50.219Z,0.87
2018-12-19T15:49:16.112Z,0.95
2018-12-19T15:51:42.031Z,0.82
2018-12-19T15:54:07.896Z,0.76
2018-12-19T15:56:33.763Z,0.80
2018-12-19T15:58:59.669Z,-0.08
2018-12-19T16:01:25.523Z,0.78
2018-12-19T16:03:51.409Z,0.82
2018-12-19T16:06:17.319Z,0.78
2018-12-19T16:08:43.172Z,0.78
2018-12-19T16:11:09.058Z,0.82
2018-12-19T16:13:35.032Z,0.82
2018-12-19T16:16:01.166Z,0.83
2018-12-19T16:18:27.080Z,0.82
2018-12-19T16:20:52.926Z,0.78
2018-12-19T16:23:18.775Z,0.79
2018-12-19T16:25:44.646Z,0.75
2018-12-19T16:28:10.519Z,0.79
2018-12-19T16:30:36.378Z,0.76
2018-12-19T16:33:02.218Z,0.75
2018-12-19T16:35:28.178Z,0.77
2018-12-19T16:37:54.029Z,0.88
2018-12-19T16:40:19.969Z,0.89
2018-12-19T16:42:46.173Z,0.82
2018-12-19T16:45:12.557Z,0.89
2018-12-19T16:47:38.473Z,0.89
2018-12-19T16:50:05.144Z,0.82
2018-12-19T16:52:31.000Z,0.88
2018-12-19T16:54:56.866Z,0.90
2018-12-19T16:57:22.732Z,0.91
2018-12-19T16:59:48.709Z,0.94
2018-12-19T17:02:14.571Z,0.94
2018-12-19T17:04:40.448Z,0.98
2018-12-19T17:07:06.314Z,0.97
2018-12-19T17:09:32.150Z,0.96
2018-12-19T17:11:58.027Z,1.04
2018-12-19T17:14:23.908Z,1.14
2018-12-19T17:16:49.798Z,1.07
2018-12-19T17:19:15.649Z,0.93
2018-12-19T17:21:41.498Z,0.82
2018-12-19T17:24:07.334Z,0.89
2018-12-19T17:26:33.187Z,0.85
2018-12-19T17:28:59.045Z,0.81
2018-12-19T17:31:24.915Z,0.76
2018-12-19T17:33:50.801Z,0.71
2018-12-19T17:36:16.660Z,0.71
2018-12-19T17:38:42.532Z,0.80
2018-12-19T17:41:08.537Z,0.76
2018-12-19T17:43:34.466Z,0.77
2018-12-19T17:46:00.310Z,0.80
2018-12-19T17:48:26.191Z,0.82
2018-12-19T17:50:52.043Z,0.91
2018-12-19T17:53:17.910Z,1.03
2018-12-19T17:55:43.798Z,0.99
2018-12-19T17:58:09.633Z,1.09
2018-12-19T18:00:35.762Z,1.11
2018-12-19T18:03:01.649Z,1.24
2018-12-19T18:05:27.510Z,1.11
2018-12-19T18:07:53.362Z,1.05
2018-12-19T18:10:19.222Z,1.02
2018-12-19T18:12:45.062Z,1.06
2018-12-19T18:15:11.013Z,1.06
2018-12-19T18:17:36.873Z,1.01
2018-12-19T18:20:04.640Z,1.05
2018-12-19T18:22:30.474Z,0.95
2018-12-19T18:24:56.314Z,0.86
2018-12-19T18:27:22.168Z,0.88
2018-12-19T18:29:48.119Z,0.92
2018-12-19T18:32:14.002Z,0.84
2018-12-19T18:34:39.875Z,0.78
2018-12-19T18:37:05.791Z,0.81
2018-12-19T18:39:31.747Z,0.10
2018-12-19T18:41:57.626Z,0.72
2018-12-19T18:44:23.670Z,0.68
2018-12-19T18:46:49.674Z,0.80
2018-12-19T18:49:15.787Z,0.85
2018-12-19T18:51:41.763Z,0.80
2018-12-19T18:54:07.632Z,0.91
2018-12-19T18:56:33.983Z,0.87
2018-12-19T18:58:59.929Z,0.93
2018-12-19T19:01:25.833Z,0.99
2018-12-19T19:03:51.997Z,0.92
2018-12-19T19:06:17.967Z,0.85
2018-12-19T19:08:43.894Z,0.81
2018-12-19T19:11:09.729Z,0.73
2018-12-19T19:13:35.693Z,0.70
2018-12-19T19:16:01.605Z,0.75
2018-12-19T19:18:27.489Z,0.71
2018-12-19T19:20:53.333Z,0.71
2018-12-19T19:23:19.203Z,0.67
2018-12-19T19:25:45.054Z,0.66
2018-12-19T19:28:10.917Z,0.67
2018-12-19T19:30:36.790Z,0.65
2018-12-19T19:33:02.753Z,0.70
2018-12-19T19:35:28.739Z,0.69
2018-12-19T19:37:54.614Z,0.55
2018-12-19T19:40:20.526Z,0.62
2018-12-19T19:42:46.668Z,0.63
2018-12-19T19:45:12.726Z,0.57
2018-12-19T19:47:38.572Z,0.60
2018-12-19T19:50:04.771Z,0.56
2018-12-19T19:52:30.646Z,0.53
2018-12-19T19:54:56.686Z,0.49
2018-12-19T19:57:22.637Z,0.52
2018-12-19T19:59:48.555Z,0.44
2018-12-19T20:02:14.416Z,0.43
2018-12-19T20:04:40.513Z,0.41
2018-12-19T20:07:06.506Z,0.40
2018-12-19T20:09:32.379Z,0.44
2018-12-19T20:11:58.225Z,0.37
2018-12-19T20:14:24.171Z,0.48
2018-12-19T20:16:56.160Z,0.48
2018-12-19T20:19:22.051Z,0.49
2018-12-19T20:21:48.046Z,0.48
2018-12-19T20:24:13.940Z,0.47
2018-12-19T20:26:39.833Z,0.45
2018-12-19T20:29:05.831Z,0.45
2018-12-19T20:31:31.711Z,0.39
2018-12-19T20:33:57.540Z,0.51
2018-12-19T20:36:23.420Z,0.38
2018-12-19T20:38:49.257Z,0.41
2018-12-19T20:41:15.123Z,0.35
2018-12-19T20:43:40.969Z,0.40
2018-12-19T20:46:06.860Z,0.38
2018-12-19T20:48:32.707Z,0.42
2018-12-19T20:50:58.554Z,0.43
2018-12-19T20:53:24.413Z,0.51
2018-12-19T20:55:50.370Z,0.48
2018-12-19T20:58:16.252Z,0.64
2018-12-19T21:00:42.326Z,0.53
2018-12-19T21:03:08.188Z,0.51
2018-12-19T21:05:34.061Z,0.48
2018-12-19T21:07:59.969Z,0.47
2018-12-19T21:10:25.810Z,0.48
2018-12-19T21:12:51.683Z,0.49
2018-12-19T21:15:17.589Z,0.49
2018-12-19T21:17:49.645Z,0.51
2018-12-19T21:20:15.508Z,0.54
2018-12-19T21:22:41.465Z,0.67
2018-12-19T21:25:07.419Z,0.72
2018-12-19T21:27:33.378Z,0.84
2018-12-19T21:29:59.207Z,0.77
2018-12-19T21:32:25.047Z,0.87
2018-12-19T21:34:51.089Z,0.78
2018-12-19T21:37:17.026Z,0.78
2018-12-19T21:39:43.023Z,0.69
2018-12-19T21:42:09.023Z,0.74
2018-12-19T21:44:34.932Z,0.71
2018-12-19T21:47:01.013Z,0.76
2018-12-19T21:49:27.122Z,0.69
2018-12-19T21:51:53.245Z,0.68
2018-12-19T21:54:19.177Z,0.67
2018-12-19T21:56:47.186Z,0.64
2018-12-19T21:59:13.229Z,0.68
2018-12-19T22:01:39.203Z,0.62
2018-12-19T22:04:05.123Z,0.62
2018-12-19T22:06:31.073Z,0.63
2018-12-19T22:08:57.511Z,0.64
2018-12-19T22:11:23.730Z,0.83
2018-12-19T22:13:50.192Z,0.85
2018-12-19T22:16:23.185Z,0.97
2018-12-19T22:18:49.238Z,0.91
2018-12-19T22:21:15.283Z,0.92
2018-12-19T22:23:41.332Z,0.98
2018-12-19T22:26:07.383Z,0.96
2018-12-19T22:28:33.347Z,0.97
2018-12-19T22:30:59.195Z,0.98
2018-12-19T22:33:25.085Z,0.92
2018-12-19T22:35:51.143Z,0.85
2018-12-19T22:38:24.129Z,0.86
2018-12-19T22:40:50.170Z,0.77
2018-12-19T22:43:26.605Z,0.76
2018-12-19T22:45:53.017Z,0.62
2018-12-19T22:48:18.914Z,0.68
2018-12-19T22:50:44.877Z,0.64
2018-12-19T22:53:10.847Z,0.68
2018-12-19T22:55:36.766Z,0.76
2018-12-19T22:58:02.657Z,0.70
2018-12-19T23:00:41.512Z,0.83
2018-12-19T23:03:07.525Z,0.87
2018-12-19T23:05:39.489Z,0.76
2018-12-19T23:08:05.401Z,0.74
2018-12-19T23:10:31.250Z,0.72
2018-12-19T23:12:57.110Z,0.75
2018-12-19T23:15:24.239Z,0.79
2018-12-19T23:17:52.145Z,0.76
2018-12-19T23:20:18.550Z,0.72
2018-12-19T23:22:44.549Z,0.71
2018-12-19T23:25:10.590Z,0.76
2018-12-19T23:27:36.595Z,0.64
2018-12-19T23:30:04.968Z,0.63
2018-12-19T23:32:30.923Z,0.63
2018-12-19T23:34:56.823Z,0.59
2018-12-19T23:37:22.962Z,0.56
2018-12-19T23:39:48.913Z,0.56
2018-12-19T23:42:14.909Z,0.57
2018-12-19T23:44:40.999Z,0.53
2018-12-19T23:47:07.025Z,0.61
2018-12-19T23:49:32.931Z,0.66
2018-12-19T23:51:58.861Z,0.63
2018-12-19T23:54:29.073Z,0.58
2018-12-19T23:56:52.564Z,0.62
2018-12-19T23:59:18.643Z,0.69
